sensor_id;sensor_type;location;lat;lon;timestamp;pressure;altitude;pressure_sealevel;temperature;humidity
71964;BME280;59834;52.124;5.422;2023-03-19T00:00:26;101092.78;;;10.52;94.87
71964;BME280;59834;52.124;5.422;2023-03-19T00:02:53;101098.19;;;10.49;95.48
71964;BME280;59834;52.124;5.422;2023-03-19T00:05:20;101098.28;;;10.47;96.21
71964;BME280;59834;52.124;5.422;2023-03-19T00:07:46;101101.75;;;10.48;96.72
71964;BME280;59834;52.124;5.422;2023-03-19T00:10:13;101101.75;;;10.48;96.29
71964;BME280;59834;52.124;5.422;2023-03-19T00:12:40;101098.38;;;10.46;97.56
71964;BME280;59834;52.124;5.422;2023-03-19T00:15:07;101096.69;;;10.45;97.58
71964;BME280;59834;52.124;5.422;2023-03-19T00:17:37;101103.78;;;10.43;97.59
71964;BME280;59834;52.124;5.422;2023-03-19T00:20:04;101095.91;;;10.43;97.92
71964;BME280;59834;52.124;5.422;2023-03-19T00:22:31;101102.88;;;10.44;98.12
71964;BME280;59834;52.124;5.422;2023-03-19T00:24:57;101105.56;;;10.42;98.12
71964;BME280;59834;52.124;5.422;2023-03-19T00:27:24;101110.13;;;10.38;98.65
71964;BME280;59834;52.124;5.422;2023-03-19T00:29:50;101106.78;;;10.36;98.21
71964;BME280;59834;52.124;5.422;2023-03-19T00:32:17;101105.06;;;10.35;98.54
71964;BME280;59834;52.124;5.422;2023-03-19T00:34:44;101113.03;;;10.34;99.10
71964;BME280;59834;52.124;5.422;2023-03-19T00:37:11;101114.88;;;10.32;98.45
71964;BME280;59834;52.124;5.422;2023-03-19T00:39:38;101110.56;;;10.31;98.85
71964;BME280;59834;52.124;5.422;2023-03-19T00:42:05;101114.97;;;10.30;99.03
71964;BME280;59834;52.124;5.422;2023-03-19T00:44:32;101112.53;;;10.27;99.41
71964;BME280;59834;52.124;5.422;2023-03-19T00:46:58;101117.06;;;10.24;99.95
71964;BME280;59834;52.124;5.422;2023-03-19T00:49:25;101113.78;;;10.20;99.66
71964;BME280;59834;52.124;5.422;2023-03-19T00:51:51;101119.94;;;10.19;99.82
71964;BME280;59834;52.124;5.422;2023-03-19T00:54:18;101114.03;;;10.15;99.60
71964;BME280;59834;52.124;5.422;2023-03-19T00:56:44;101120.38;;;10.11;99.78
71964;BME280;59834;52.124;5.422;2023-03-19T00:59:11;101117.09;;;10.08;100.00
71964;BME280;59834;52.124;5.422;2023-03-19T01:01:37;101107.75;;;10.04;100.00
71964;BME280;59834;52.124;5.422;2023-03-19T01:04:04;101115.75;;;10.01;99.95
71964;BME280;59834;52.124;5.422;2023-03-19T01:06:30;101116.88;;;9.97;100.00
71964;BME280;59834;52.124;5.422;2023-03-19T01:08:57;101113.66;;;9.91;100.00
71964;BME280;59834;52.124;5.422;2023-03-19T01:11:23;101121.94;;;9.84;100.00
71964;BME280;59834;52.124;5.422;2023-03-19T01:13:50;101126.50;;;9.80;100.00
71964;BME280;59834;52.124;5.422;2023-03-19T01:16:16;101138.22;;;9.73;100.00
71964;BME280;59834;52.124;5.422;2023-03-19T01:18:43;101128.09;;;9.67;100.00
71964;BME280;59834;52.124;5.422;2023-03-19T01:21:09;101131.72;;;9.64;100.00
71964;BME280;59834;52.124;5.422;2023-03-19T01:23:36;101122.38;;;9.60;100.00
71964;BME280;59834;52.124;5.422;2023-03-19T01:26:03;101126.91;;;9.57;100.00
71964;BME280;59834;52.124;5.422;2023-03-19T01:28:30;101122.88;;;9.51;100.00
71964;BME280;59834;52.124;5.422;2023-03-19T01:31:01;101115.28;;;9.47;100.00
71964;BME280;59834;52.124;5.422;2023-03-19T01:33:30;101118.81;;;9.45;100.00
71964;BME280;59834;52.124;5.422;2023-03-19T01:35:56;101125.91;;;9.43;100.00
71964;BME280;59834;52.124;5.422;2023-03-19T01:38:24;101119.00;;;9.42;100.00
71964;BME280;59834;52.124;5.422;2023-03-19T01:40:51;101124.72;;;9.49;100.00
71964;BME280;59834;52.124;5.422;2023-03-19T01:43:20;101126.91;;;9.57;100.00
71964;BME280;59834;52.124;5.422;2023-03-19T01:45:50;101118.06;;;9.59;100.00
71964;BME280;59834;52.124;5.422;2023-03-19T01:48:39;101123.03;;;9.64;100.00
71964;BME280;59834;52.124;5.422;2023-03-19T01:51:09;101117.81;;;9.64;100.00
71964;BME280;59834;52.124;5.422;2023-03-19T01:53:38;101117.91;;;9.62;100.00
71964;BME280;59834;52.124;5.422;2023-03-19T01:56:21;101122.28;;;9.62;100.00
71964;BME280;59834;52.124;5.422;2023-03-19T01:58:52;101123.31;;;9.59;100.00
71964;BME280;59834;52.124;5.422;2023-03-19T02:01:21;101127.66;;;9.59;100.00
71964;BME280;59834;52.124;5.422;2023-03-19T02:03:49;101124.97;;;9.60;100.00
71964;BME280;59834;52.124;5.422;2023-03-19T02:06:19;101130.09;;;9.62;100.00
71964;BME280;59834;52.124;5.422;2023-03-19T02:08:47;101131.88;;;9.61;100.00
71964;BME280;59834;52.124;5.422;2023-03-19T02:11:15;101137.94;;;9.62;100.00
71964;BME280;59834;52.124;5.422;2023-03-19T02:13:42;101126.66;;;9.61;100.00
71964;BME280;59834;52.124;5.422;2023-03-19T02:16:09;101133.59;;;9.62;100.00
71964;BME280;59834;52.124;5.422;2023-03-19T02:18:36;101136.09;;;9.64;100.00
71964;BME280;59834;52.124;5.422;2023-03-19T02:21:06;101137.78;;;9.65;100.00
71964;BME280;59834;52.124;5.422;2023-03-19T02:26:08;101137.78;;;9.65;100.00
71964;BME280;59834;52.124;5.422;2023-03-19T02:28:38;101132.56;;;9.65;100.00
71964;BME280;59834;52.124;5.422;2023-03-19T02:31:06;101133.50;;;9.64;100.00
71964;BME280;59834;52.124;5.422;2023-03-19T02:33:33;101125.03;;;9.59;100.00
71964;BME280;59834;52.124;5.422;2023-03-19T02:36:01;101128.03;;;9.53;100.00
71964;BME280;59834;52.124;5.422;2023-03-19T02:38:32;101139.63;;;9.47;100.00
71964;BME280;59834;52.124;5.422;2023-03-19T02:41:01;101130.50;;;9.38;100.00
71964;BME280;59834;52.124;5.422;2023-03-19T02:43:34;101141.13;;;9.35;100.00
71964;BME280;59834;52.124;5.422;2023-03-19T02:46:08;101137.94;;;9.30;100.00
71964;BME280;59834;52.124;5.422;2023-03-19T02:48:36;101140.81;;;9.26;100.00
71964;BME280;59834;52.124;5.422;2023-03-19T02:51:04;101135.56;;;9.26;100.00
71964;BME280;59834;52.124;5.422;2023-03-19T02:53:30;101136.16;;;9.31;100.00
71964;BME280;59834;52.124;5.422;2023-03-19T02:55:57;101143.84;;;9.34;100.00
71964;BME280;59834;52.124;5.422;2023-03-19T02:58:23;101146.34;;;9.35;100.00
71964;BME280;59834;52.124;5.422;2023-03-19T03:00:49;101141.13;;;9.35;100.00
71964;BME280;59834;52.124;5.422;2023-03-19T03:03:17;101154.97;;;9.37;100.00
71964;BME280;59834;52.124;5.422;2023-03-19T03:05:44;101148.81;;;9.38;100.00
71964;BME280;59834;52.124;5.422;2023-03-19T03:08:10;101151.66;;;9.34;100.00
71964;BME280;59834;52.124;5.422;2023-03-19T03:10:37;101146.53;;;9.32;100.00
71964;BME280;59834;52.124;5.422;2023-03-19T03:13:03;101143.84;;;9.34;100.00
71964;BME280;59834;52.124;5.422;2023-03-19T03:15:30;101147.28;;;9.34;100.00
71964;BME280;59834;52.124;5.422;2023-03-19T03:17:57;101142.16;;;9.33;100.00
71964;BME280;59834;52.124;5.422;2023-03-19T03:20:23;101142.38;;;9.28;100.00
71964;BME280;59834;52.124;5.422;2023-03-19T03:22:50;101149.47;;;9.26;100.00
71964;BME280;59834;52.124;5.422;2023-03-19T03:25:17;101147.69;;;9.27;100.00
71964;BME280;59834;52.124;5.422;2023-03-19T03:27:43;101145.00;;;9.28;100.00
71964;BME280;59834;52.124;5.422;2023-03-19T03:30:10;101146.69;;;9.29;100.00
71964;BME280;59834;52.124;5.422;2023-03-19T03:32:38;101151.84;;;9.31;100.00
71964;BME280;59834;52.124;5.422;2023-03-19T03:35:06;101150.22;;;9.28;100.00
71964;BME280;59834;52.124;5.422;2023-03-19T03:37:34;101154.84;;;9.23;100.00
71964;BME280;59834;52.124;5.422;2023-03-19T03:40:00;101149.03;;;9.18;100.00
71964;BME280;59834;52.124;5.422;2023-03-19T03:42:31;101158.88;;;9.13;100.00
71964;BME280;59834;52.124;5.422;2023-03-19T03:44:58;101161.66;;;9.10;100.00
71964;BME280;59834;52.124;5.422;2023-03-19T03:47:24;101160.72;;;9.11;100.00
71964;BME280;59834;52.124;5.422;2023-03-19T03:49:51;101160.72;;;9.11;100.00
71964;BME280;59834;52.124;5.422;2023-03-19T03:52:17;101165.00;;;9.12;100.00
71964;BME280;59834;52.124;5.422;2023-03-19T03:54:44;101167.88;;;9.07;100.00
71964;BME280;59834;52.124;5.422;2023-03-19T03:57:10;101161.28;;;9.00;100.00
71964;BME280;59834;52.124;5.422;2023-03-19T03:59:37;101159.91;;;8.93;100.00
71964;BME280;59834;52.124;5.422;2023-03-19T04:02:04;101159.53;;;8.83;100.00
71964;BME280;59834;52.124;5.422;2023-03-19T04:04:31;101165.84;;;8.79;100.00
71964;BME280;59834;52.124;5.422;2023-03-19T04:06:59;101166.88;;;8.75;100.00
71964;BME280;59834;52.124;5.422;2023-03-19T04:09:25;101161.06;;;8.70;100.00
71964;BME280;59834;52.124;5.422;2023-03-19T04:11:52;101151.72;;;8.66;100.00
71964;BME280;59834;52.124;5.422;2023-03-19T04:14:18;101144.03;;;8.63;100.00
71964;BME280;59834;52.124;5.422;2023-03-19T04:16:45;101155.31;;;8.63;100.00
71964;BME280;59834;52.124;5.422;2023-03-19T04:19:11;101156.31;;;8.61;100.00
71964;BME280;59834;52.124;5.422;2023-03-19T04:21:38;101157.25;;;8.60;100.00
71964;BME280;59834;52.124;5.422;2023-03-19T04:24:05;101159.06;;;8.58;100.00
71964;BME280;59834;52.124;5.422;2023-03-19T04:26:31;101168.91;;;8.53;100.00
71964;BME280;59834;52.124;5.422;2023-03-19T04:28:58;101165.66;;;8.47;100.00
71964;BME280;59834;52.124;5.422;2023-03-19T04:31:24;101160.75;;;8.41;100.00
71964;BME280;59834;52.124;5.422;2023-03-19T04:33:51;101167.00;;;8.37;100.00
71964;BME280;59834;52.124;5.422;2023-03-19T04:36:17;101169.75;;;8.34;100.00
71964;BME280;59834;52.124;5.422;2023-03-19T04:38:44;101168.31;;;8.29;100.00
71964;BME280;59834;52.124;5.422;2023-03-19T04:41:11;101167.69;;;8.23;100.00
71964;BME280;59834;52.124;5.422;2023-03-19T04:43:39;101175.03;;;8.15;100.00
71964;BME280;59834;52.124;5.422;2023-03-19T04:46:05;101171.75;;;8.12;100.00
71964;BME280;59834;52.124;5.422;2023-03-19T04:48:34;101173.72;;;8.07;100.00
71964;BME280;59834;52.124;5.422;2023-03-19T04:51:02;101178.09;;;8.06;100.00
71964;BME280;59834;52.124;5.422;2023-03-19T04:53:29;101172.88;;;8.06;100.00
71964;BME280;59834;52.124;5.422;2023-03-19T04:55:55;101163.50;;;8.02;100.00
71964;BME280;59834;52.124;5.422;2023-03-19T04:58:23;101168.91;;;7.97;100.00
71964;BME280;59834;52.124;5.422;2023-03-19T05:00:49;101165.72;;;7.92;100.00
71964;BME280;59834;52.124;5.422;2023-03-19T05:03:16;101177.03;;;7.91;100.00
71964;BME280;59834;52.124;5.422;2023-03-19T05:05:42;101177.25;;;7.87;100.00
71964;BME280;59834;52.124;5.422;2023-03-19T05:08:09;101183.31;;;7.87;100.00
71964;BME280;59834;52.124;5.422;2023-03-19T05:10:36;101186.00;;;7.86;100.00
71964;BME280;59834;52.124;5.422;2023-03-19T05:13:03;101198.38;;;7.80;100.00
71964;BME280;59834;52.124;5.422;2023-03-19T05:15:29;101195.16;;;7.75;100.00
71964;BME280;59834;52.124;5.422;2023-03-19T05:17:56;101205.72;;;7.72;100.00
71964;BME280;59834;52.124;5.422;2023-03-19T05:20:23;101208.50;;;7.68;100.00
71964;BME280;59834;52.124;5.422;2023-03-19T05:22:51;101206.97;;;7.64;100.00
71964;BME280;59834;52.124;5.422;2023-03-19T05:25:18;101207.09;;;7.61;100.00
71964;BME280;59834;52.124;5.422;2023-03-19T05:27:45;101209.00;;;7.57;100.00
71964;BME280;59834;52.124;5.422;2023-03-19T05:30:11;101205.69;;;7.53;100.00
71964;BME280;59834;52.124;5.422;2023-03-19T05:32:38;101207.53;;;7.51;100.00
71964;BME280;59834;52.124;5.422;2023-03-19T05:35:06;101211.03;;;7.50;100.00
71964;BME280;59834;52.124;5.422;2023-03-19T05:37:33;101211.03;;;7.50;100.00
71964;BME280;59834;52.124;5.422;2023-03-19T05:39:59;101210.41;;;7.45;100.00
71964;BME280;59834;52.124;5.422;2023-03-19T05:42:26;101219.28;;;7.41;100.00
71964;BME280;59834;52.124;5.422;2023-03-19T05:44:52;101221.16;;;7.38;100.00
71964;BME280;59834;52.124;5.422;2023-03-19T05:47:19;101231.78;;;7.33;100.00
71964;BME280;59834;52.124;5.422;2023-03-19T05:49:46;101236.22;;;7.31;100.00
71964;BME280;59834;52.124;5.422;2023-03-19T05:52:12;101233.75;;;7.28;100.00
71964;BME280;59834;52.124;5.422;2023-03-19T05:54:39;101232.97;;;7.26;100.00
71964;BME280;59834;52.124;5.422;2023-03-19T05:57:06;101241.56;;;7.28;100.00
71964;BME280;59834;52.124;5.422;2023-03-19T05:59:33;101242.28;;;7.31;100.00
71964;BME280;59834;52.124;5.422;2023-03-19T06:01:59;101245.38;;;7.40;100.00
71964;BME280;59834;52.124;5.422;2023-03-19T06:04:26;101246.66;;;7.50;100.00
71964;BME280;59834;52.124;5.422;2023-03-19T06:06:52;101250.81;;;7.54;100.00
71964;BME280;59834;52.124;5.422;2023-03-19T06:09:19;101246.47;;;7.54;100.00
71964;BME280;59834;52.124;5.422;2023-03-19T06:11:45;101253.28;;;7.57;100.00
71964;BME280;59834;52.124;5.422;2023-03-19T06:14:12;101249.19;;;7.72;100.00
71964;BME280;59834;52.124;5.422;2023-03-19T06:16:38;101256.97;;;7.91;100.00
71964;BME280;59834;52.124;5.422;2023-03-19T06:19:05;101258.94;;;8.04;100.00
71964;BME280;59834;52.124;5.422;2023-03-19T06:21:31;101255.94;;;8.14;100.00
71964;BME280;59834;52.124;5.422;2023-03-19T06:23:58;101259.59;;;8.10;100.00
71964;BME280;59834;52.124;5.422;2023-03-19T06:26:25;101269.25;;;8.08;100.00
71964;BME280;59834;52.124;5.422;2023-03-19T06:28:52;101269.19;;;7.90;100.00
71964;BME280;59834;52.124;5.422;2023-03-19T06:31:19;101273.91;;;7.82;100.00
71964;BME280;59834;52.124;5.422;2023-03-19T06:33:45;101274.59;;;7.86;100.00
71964;BME280;59834;52.124;5.422;2023-03-19T06:36:13;101264.88;;;7.89;100.00
71964;BME280;59834;52.124;5.422;2023-03-19T06:38:39;101274.25;;;7.93;100.00
71964;BME280;59834;52.124;5.422;2023-03-19T06:41:06;101280.25;;;7.95;100.00
71964;BME280;59834;52.124;5.422;2023-03-19T06:43:33;101285.25;;;8.00;100.00
71964;BME280;59834;52.124;5.422;2023-03-19T06:46:05;101284.97;;;8.06;100.00
71964;BME280;59834;52.124;5.422;2023-03-19T06:48:35;101281.94;;;8.15;100.00
71964;BME280;59834;52.124;5.422;2023-03-19T06:51:02;101280.88;;;8.19;100.00
71964;BME280;59834;52.124;5.422;2023-03-19T06:53:28;101284.19;;;8.23;100.00
71964;BME280;59834;52.124;5.422;2023-03-19T06:55:55;101291.03;;;8.25;100.00
71964;BME280;59834;52.124;5.422;2023-03-19T06:58:21;101288.34;;;8.27;100.00
71964;BME280;59834;52.124;5.422;2023-03-19T07:00:48;101288.19;;;8.30;100.00
71964;BME280;59834;52.124;5.422;2023-03-19T07:03:15;101290.66;;;8.33;100.00
71964;BME280;59834;52.124;5.422;2023-03-19T07:05:41;101298.28;;;8.38;100.00
71964;BME280;59834;52.124;5.422;2023-03-19T07:08:08;101301.47;;;8.44;100.00
71964;BME280;59834;52.124;5.422;2023-03-19T07:10:37;101307.31;;;8.49;100.00
71964;BME280;59834;52.124;5.422;2023-03-19T07:13:05;101310.53;;;8.55;100.00
71964;BME280;59834;52.124;5.422;2023-03-19T07:15:32;101314.72;;;8.59;100.00
71964;BME280;59834;52.124;5.422;2023-03-19T07:17:59;101315.47;;;8.61;100.00
71964;BME280;59834;52.124;5.422;2023-03-19T07:20:25;101319.81;;;8.62;100.00
71964;BME280;59834;52.124;5.422;2023-03-19T07:22:52;101315.28;;;8.65;100.00
71964;BME280;59834;52.124;5.422;2023-03-19T07:25:19;101320.25;;;8.70;100.00
71964;BME280;59834;52.124;5.422;2023-03-19T07:27:46;101327.16;;;8.71;100.00
71964;BME280;59834;52.124;5.422;2023-03-19T07:30:13;101332.66;;;8.65;100.00
71964;BME280;59834;52.124;5.422;2023-03-19T07:32:40;101338.91;;;8.62;100.00
71964;BME280;59834;52.124;5.422;2023-03-19T07:35:08;101346.78;;;8.61;100.00
71964;BME280;59834;52.124;5.422;2023-03-19T07:37:36;101347.94;;;8.55;100.00
71964;BME280;59834;52.124;5.422;2023-03-19T07:40:03;101338.53;;;8.51;100.00
71964;BME280;59834;52.124;5.422;2023-03-19T07:42:30;101350.13;;;8.45;100.00
71964;BME280;59834;52.124;5.422;2023-03-19T07:44:56;101354.81;;;8.37;100.00
71964;BME280;59834;52.124;5.422;2023-03-19T07:47:23;101364.50;;;8.35;100.00
71964;BME280;59834;52.124;5.422;2023-03-19T07:49:55;101363.84;;;8.30;100.00
71964;BME280;59834;52.124;5.422;2023-03-19T07:52:23;101365.66;;;8.28;100.00
71964;BME280;59834;52.124;5.422;2023-03-19T07:54:50;101374.28;;;8.30;100.00
71964;BME280;59834;52.124;5.422;2023-03-19T07:57:17;101376.66;;;8.35;100.00
71964;BME280;59834;52.124;5.422;2023-03-19T07:59:44;101376.41;;;8.41;100.00
71964;BME280;59834;52.124;5.422;2023-03-19T08:02:11;101380.50;;;8.46;100.00
71964;BME280;59834;52.124;5.422;2023-03-19T08:04:38;101382.06;;;8.50;100.00
71964;BME280;59834;52.124;5.422;2023-03-19T08:07:05;101385.59;;;8.49;100.00
71964;BME280;59834;52.124;5.422;2023-03-19T08:09:32;101387.28;;;8.50;100.00
71964;BME280;59834;52.124;5.422;2023-03-19T08:12:00;101375.84;;;8.53;100.00
71964;BME280;59834;52.124;5.422;2023-03-19T08:14:26;101383.03;;;8.67;100.00
71964;BME280;59834;52.124;5.422;2023-03-19T08:16:53;101383.03;;;8.86;100.00
71964;BME280;59834;52.124;5.422;2023-03-19T08:19:19;101378.81;;;9.01;100.00
71964;BME280;59834;52.124;5.422;2023-03-19T08:21:46;101381.00;;;9.10;100.00
71964;BME280;59834;52.124;5.422;2023-03-19T08:24:13;101387.75;;;9.14;100.00
71964;BME280;59834;52.124;5.422;2023-03-19T08:26:39;101382.94;;;9.24;100.00
71964;BME280;59834;52.124;5.422;2023-03-19T08:29:06;101380.56;;;9.19;100.00
71964;BME280;59834;52.124;5.422;2023-03-19T08:31:33;101388.84;;;9.27;100.00
71964;BME280;59834;52.124;5.422;2023-03-19T08:33:59;101397.31;;;9.32;100.00
71964;BME280;59834;52.124;5.422;2023-03-19T08:36:28;101395.31;;;9.37;100.00
71964;BME280;59834;52.124;5.422;2023-03-19T08:38:54;101405.31;;;9.47;100.00
71964;BME280;59834;52.124;5.422;2023-03-19T08:41:22;101409.06;;;9.41;100.00
71964;BME280;59834;52.124;5.422;2023-03-19T08:43:48;101398.75;;;9.38;99.51
71964;BME280;59834;52.124;5.422;2023-03-19T08:46:15;101409.00;;;9.42;100.00
71964;BME280;59834;52.124;5.422;2023-03-19T08:48:41;101411.44;;;9.45;98.96
71964;BME280;59834;52.124;5.422;2023-03-19T08:51:08;101413.16;;;9.47;99.25
71964;BME280;59834;52.124;5.422;2023-03-19T08:53:35;101413.31;;;9.43;99.57
71964;BME280;59834;52.124;5.422;2023-03-19T08:56:04;101414.84;;;9.48;98.50
71964;BME280;59834;52.124;5.422;2023-03-19T08:58:31;101420.44;;;9.57;98.19
71964;BME280;59834;52.124;5.422;2023-03-19T09:01:08;101422.13;;;9.76;97.55
71964;BME280;59834;52.124;5.422;2023-03-19T09:03:36;101418.38;;;9.81;96.49
71964;BME280;59834;52.124;5.422;2023-03-19T09:06:06;101416.59;;;9.82;96.75
71964;BME280;59834;52.124;5.422;2023-03-19T09:08:34;101416.66;;;9.98;96.44
71964;BME280;59834;52.124;5.422;2023-03-19T09:11:02;101415.66;;;10.00;95.41
71964;BME280;59834;52.124;5.422;2023-03-19T09:13:29;101421.69;;;10.18;96.15
71964;BME280;59834;52.124;5.422;2023-03-19T09:15:55;101420.16;;;10.31;95.71
71964;BME280;59834;52.124;5.422;2023-03-19T09:18:22;101435.53;;;10.37;94.54
71964;BME280;59834;52.124;5.422;2023-03-19T09:20:52;101425.91;;;10.38;94.22
71964;BME280;59834;52.124;5.422;2023-03-19T09:23:20;101432.47;;;10.29;93.30
71964;BME280;59834;52.124;5.422;2023-03-19T09:25:47;101441.63;;;10.21;94.41
71964;BME280;59834;52.124;5.422;2023-03-19T09:28:14;101440.78;;;10.20;94.24
71964;BME280;59834;52.124;5.422;2023-03-19T09:30:41;101438.75;;;10.25;93.82
71964;BME280;59834;52.124;5.422;2023-03-19T09:33:08;101445.47;;;10.31;94.27
71964;BME280;59834;52.124;5.422;2023-03-19T09:35:35;101439.25;;;10.33;93.62
71964;BME280;59834;52.124;5.422;2023-03-19T09:38:02;101439.66;;;10.42;93.85
71964;BME280;59834;52.124;5.422;2023-03-19T09:40:34;101444.16;;;10.40;92.86
71964;BME280;59834;52.124;5.422;2023-03-19T09:45:44;101454.13;;;10.49;93.35
71964;BME280;59834;52.124;5.422;2023-03-19T09:48:17;101454.78;;;10.52;93.40
71964;BME280;59834;52.124;5.422;2023-03-19T09:50:46;101462.75;;;10.51;92.59
71964;BME280;59834;52.124;5.422;2023-03-19T09:53:22;101463.44;;;10.54;92.95
71964;BME280;59834;52.124;5.422;2023-03-19T09:55:54;101469.59;;;10.53;92.70
71964;BME280;59834;52.124;5.422;2023-03-19T09:58:34;101472.41;;;10.33;93.34
71964;BME280;59834;52.124;5.422;2023-03-19T10:01:02;101484.63;;;10.32;93.93
71964;BME280;59834;52.124;5.422;2023-03-19T10:08:40;101490.53;;;10.36;93.74
71964;BME280;59834;52.124;5.422;2023-03-19T10:16:57;101493.31;;;10.50;93.89
71964;BME280;59834;52.124;5.422;2023-03-19T10:19:37;101491.25;;;10.40;93.28
71964;BME280;59834;52.124;5.422;2023-03-19T10:22:29;101492.47;;;10.32;93.28
71964;BME280;59834;52.124;5.422;2023-03-19T10:24:58;101498.72;;;10.47;94.23
71964;BME280;59834;52.124;5.422;2023-03-19T10:27:27;101492.06;;;10.57;93.43
71964;BME280;59834;52.124;5.422;2023-03-19T10:29:55;101494.50;;;10.60;93.38
71964;BME280;59834;52.124;5.422;2023-03-19T10:32:37;101499.38;;;10.51;93.56
71964;BME280;59834;52.124;5.422;2023-03-19T10:35:38;101499.38;;;10.51;92.79
71964;BME280;59834;52.124;5.422;2023-03-19T10:38:23;101494.91;;;10.53;93.10
71964;BME280;59834;52.124;5.422;2023-03-19T10:41:15;101496.19;;;10.61;93.17
71964;BME280;59834;52.124;5.422;2023-03-19T10:44:00;101497.72;;;10.66;92.86
71964;BME280;59834;52.124;5.422;2023-03-19T10:46:35;101494.88;;;10.70;92.14
71964;BME280;59834;52.124;5.422;2023-03-19T10:49:02;101495.22;;;10.80;92.76
71964;BME280;59834;52.124;5.422;2023-03-19T10:51:30;101504.69;;;10.98;91.81
71964;BME280;59834;52.124;5.422;2023-03-19T10:53:59;101504.97;;;10.94;91.24
71964;BME280;59834;52.124;5.422;2023-03-19T10:56:28;101518.44;;;10.70;91.43
71964;BME280;59834;52.124;5.422;2023-03-19T10:59:01;101520.44;;;10.65;91.40
71964;BME280;59834;52.124;5.422;2023-03-19T11:01:38;101513.59;;;10.62;92.19
71964;BME280;59834;52.124;5.422;2023-03-19T11:04:20;101520.22;;;10.70;91.85
71964;BME280;59834;52.124;5.422;2023-03-19T11:06:50;101522.75;;;10.71;91.80
71964;BME280;59834;52.124;5.422;2023-03-19T11:09:29;101524.69;;;10.68;91.61
71964;BME280;59834;52.124;5.422;2023-03-19T11:12:12;101532.28;;;10.72;92.29
71964;BME280;59834;52.124;5.422;2023-03-19T11:14:42;101538.91;;;10.62;92.51
71964;BME280;59834;52.124;5.422;2023-03-19T11:17:37;101540.94;;;10.57;92.71
71964;BME280;59834;52.124;5.422;2023-03-19T11:20:31;101544.88;;;10.48;93.08
71964;BME280;59834;52.124;5.422;2023-03-19T11:23:00;101541.72;;;10.42;93.34
71964;BME280;59834;52.124;5.422;2023-03-19T11:25:36;101544.22;;;10.27;93.26
71964;BME280;59834;52.124;5.422;2023-03-19T11:28:12;101538.53;;;10.36;93.31
71964;BME280;59834;52.124;5.422;2023-03-19T11:36:20;101541.72;;;10.42;92.81
71964;BME280;59834;52.124;5.422;2023-03-19T11:39:12;101545.66;;;10.50;92.11
71964;BME280;59834;52.124;5.422;2023-03-19T11:42:20;101541.25;;;10.51;92.68
71964;BME280;59834;52.124;5.422;2023-03-19T11:58:56;101544.16;;;10.62;91.52
71964;BME280;59834;52.124;5.422;2023-03-19T12:01:41;101548.34;;;10.49;91.65
71964;BME280;59834;52.124;5.422;2023-03-19T12:07:12;101553.53;;;10.33;93.40
71964;BME280;59834;52.124;5.422;2023-03-19T12:12:33;101555.44;;;10.47;93.38
71964;BME280;59834;52.124;5.422;2023-03-19T12:17:55;101557.28;;;10.45;93.37
71964;BME280;59834;52.124;5.422;2023-03-19T12:20:35;101561.22;;;10.53;93.14
71964;BME280;59834;52.124;5.422;2023-03-19T12:23:31;101546.81;;;10.45;93.11
71964;BME280;59834;52.124;5.422;2023-03-19T12:34:25;101536.56;;;11.38;90.21
71964;BME280;59834;52.124;5.422;2023-03-19T12:39:52;101543.47;;;11.55;87.41
71964;BME280;59834;52.124;5.422;2023-03-19T12:42:20;101555.25;;;11.48;87.21
71964;BME280;59834;52.124;5.422;2023-03-19T12:44:52;101562.69;;;11.55;87.39
71964;BME280;59834;52.124;5.422;2023-03-19T12:47:26;101559.78;;;11.60;87.32
71964;BME280;59834;52.124;5.422;2023-03-19T12:50:00;101556.25;;;11.77;86.63
71964;BME280;59834;52.124;5.422;2023-03-19T12:52:32;101554.06;;;11.84;85.51
71964;BME280;59834;52.124;5.422;2023-03-19T12:58:17;101562.41;;;12.22;84.62
71964;BME280;59834;52.124;5.422;2023-03-19T13:04:05;101563.81;;;12.27;83.42
71964;BME280;59834;52.124;5.422;2023-03-19T13:06:42;101562.56;;;12.19;83.81
71964;BME280;59834;52.124;5.422;2023-03-19T13:09:21;101567.53;;;12.23;82.69
71964;BME280;59834;52.124;5.422;2023-03-19T13:11:57;101566.06;;;12.34;83.50
71964;BME280;59834;52.124;5.422;2023-03-19T13:14:44;101574.22;;;12.29;83.03
71964;BME280;59834;52.124;5.422;2023-03-19T13:17:22;101568.13;;;12.29;82.42
71964;BME280;59834;52.124;5.422;2023-03-19T13:19:52;101572.22;;;12.18;82.67
71964;BME280;59834;52.124;5.422;2023-03-19T13:22:22;101570.56;;;12.17;83.00
71964;BME280;59834;52.124;5.422;2023-03-19T13:24:51;101566.03;;;12.19;82.98
71964;BME280;59834;52.124;5.422;2023-03-19T13:27:33;101571.31;;;12.34;82.83
71964;BME280;59834;52.124;5.422;2023-03-19T13:32:46;101559.56;;;12.55;81.17
71964;BME280;59834;52.124;5.422;2023-03-19T13:35:35;101559.91;;;12.63;81.16
71964;BME280;59834;52.124;5.422;2023-03-19T13:40:51;101564.16;;;12.66;80.05
71964;BME280;59834;52.124;5.422;2023-03-19T13:48:48;101564.16;;;12.80;78.70
71964;BME280;59834;52.124;5.422;2023-03-19T13:56:21;101570.44;;;12.78;79.50
71964;BME280;59834;52.124;5.422;2023-03-19T14:01:42;101565.38;;;12.74;79.03
71964;BME280;59834;52.124;5.422;2023-03-19T14:04:29;101563.31;;;12.80;79.48
71964;BME280;59834;52.124;5.422;2023-03-19T14:07:18;101566.69;;;12.82;79.13
71964;BME280;59834;52.124;5.422;2023-03-19T14:10:03;101554.69;;;12.92;78.72
71964;BME280;59834;52.124;5.422;2023-03-19T14:12:34;101563.09;;;12.97;78.00
71964;BME280;59834;52.124;5.422;2023-03-19T14:17:43;101563.13;;;12.68;78.68
71964;BME280;59834;52.124;5.422;2023-03-19T14:26:19;101573.34;;;12.87;78.94
71964;BME280;59834;52.124;5.422;2023-03-19T14:29:00;101574.56;;;12.82;78.28
71964;BME280;59834;52.124;5.422;2023-03-19T14:31:35;101573.44;;;12.86;78.43